sensor_id;sensor_type;location;lat;lon;timestamp;pressure;altitude;pressure_sealevel;temperature;humidity
23261;BME280;11799;47.740;-3.390;2023-08-06T00:01:39;101915.25;;;14.93;100.00
23261;BME280;11799;47.740;-3.390;2023-08-06T00:04:04;101923.47;;;14.90;100.00
23261;BME280;11799;47.740;-3.390;2023-08-06T00:06:30;101931.69;;;14.86;100.00
23261;BME280;11799;47.740;-3.390;2023-08-06T00:08:55;101933.88;;;14.81;100.00
23261;BME280;11799;47.740;-3.390;2023-08-06T00:11:21;101934.34;;;14.86;100.00
23261;BME280;11799;47.740;-3.390;2023-08-06T00:13:47;101928.66;;;14.80;100.00
23261;BME280;11799;47.740;-3.390;2023-08-06T00:16:13;101927.59;;;14.82;100.00
23261;BME280;11799;47.740;-3.390;2023-08-06T00:18:39;101935.19;;;14.87;100.00
23261;BME280;11799;47.740;-3.390;2023-08-06T00:21:05;101939.66;;;14.86;100.00
23261;BME280;11799;47.740;-3.390;2023-08-06T00:23:31;101937.13;;;14.85;100.00
23261;BME280;11799;47.740;-3.390;2023-08-06T00:25:56;101932.78;;;14.84;100.00
23261;BME280;11799;47.740;-3.390;2023-08-06T00:28:22;101938.09;;;14.84;100.00
23261;BME280;11799;47.740;-3.390;2023-08-06T00:30:54;101944.50;;;14.81;100.00
23261;BME280;11799;47.740;-3.390;2023-08-06T00:33:21;101952.13;;;14.86;100.00
23261;BME280;11799;47.740;-3.390;2023-08-06T00:35:47;101948.75;;;14.84;100.00
23261;BME280;11799;47.740;-3.390;2023-08-06T00:38:13;101946.31;;;14.81;100.00
23261;BME280;11799;47.740;-3.390;2023-08-06T00:40:38;101960.47;;;14.81;100.00
23261;BME280;11799;47.740;-3.390;2023-08-06T00:43:04;101955.25;;;14.80;100.00
23261;BME280;11799;47.740;-3.390;2023-08-06T00:45:30;101961.66;;;14.77;100.00
23261;BME280;11799;47.740;-3.390;2023-08-06T00:47:56;101956.34;;;14.77;100.00
23261;BME280;11799;47.740;-3.390;2023-08-06T00:50:22;101955.00;;;14.72;100.00
23261;BME280;11799;47.740;-3.390;2023-08-06T00:52:49;101955.84;;;14.72;100.00
23261;BME280;11799;47.740;-3.390;2023-08-06T00:55:15;101960.81;;;14.77;100.00
23261;BME280;11799;47.740;-3.390;2023-08-06T00:57:41;101961.91;;;14.74;100.00
23261;BME280;11799;47.740;-3.390;2023-08-06T01:00:07;101961.91;;;14.74;100.00
23261;BME280;11799;47.740;-3.390;2023-08-06T01:02:33;101965.63;;;14.72;100.00
23261;BME280;11799;47.740;-3.390;2023-08-06T01:04:59;101970.59;;;14.76;100.00
23261;BME280;11799;47.740;-3.390;2023-08-06T01:10:22;101964.06;;;14.69;100.00
23261;BME280;11799;47.740;-3.390;2023-08-06T01:15:29;101960.91;;;14.64;100.00
23261;BME280;11799;47.740;-3.390;2023-08-06T01:17:58;101967.69;;;14.68;100.00
23261;BME280;11799;47.740;-3.390;2023-08-06T01:20:30;101971.66;;;14.63;100.00
23261;BME280;11799;47.740;-3.390;2023-08-06T01:22:57;101971.91;;;14.60;100.00
23261;BME280;11799;47.740;-3.390;2023-08-06T01:25:29;101965.97;;;14.56;100.00
23261;BME280;11799;47.740;-3.390;2023-08-06T01:28:02;101964.88;;;14.59;100.00
23261;BME280;11799;47.740;-3.390;2023-08-06T01:30:31;101959.91;;;14.54;100.00
23261;BME280;11799;47.740;-3.390;2023-08-06T01:33:04;101968.75;;;14.54;100.00
23261;BME280;11799;47.740;-3.390;2023-08-06T01:35:34;101960.66;;;14.56;100.00
23261;BME280;11799;47.740;-3.390;2023-08-06T01:38:01;101964.50;;;14.52;100.00
23261;BME280;11799;47.740;-3.390;2023-08-06T01:40:27;101955.28;;;14.45;100.00
23261;BME280;11799;47.740;-3.390;2023-08-06T01:42:54;101972.94;;;14.46;100.00
23261;BME280;11799;47.740;-3.390;2023-08-06T01:45:20;101971.97;;;14.47;100.00
23261;BME280;11799;47.740;-3.390;2023-08-06T01:47:46;101974.91;;;14.44;100.00
23261;BME280;11799;47.740;-3.390;2023-08-06T01:50:11;101968.84;;;14.42;100.00
23261;BME280;11799;47.740;-3.390;2023-08-06T01:52:37;101974.16;;;14.42;100.00
23261;BME280;11799;47.740;-3.390;2023-08-06T01:55:02;101968.84;;;14.42;100.00
23261;BME280;11799;47.740;-3.390;2023-08-06T01:57:29;101976.06;;;14.40;100.00
23261;BME280;11799;47.740;-3.390;2023-08-06T01:59:55;101969.78;;;14.41;100.00
23261;BME280;11799;47.740;-3.390;2023-08-06T02:02:20;101977.88;;;14.39;100.00
23261;BME280;11799;47.740;-3.390;2023-08-06T02:04:46;101972.44;;;14.41;100.00
23261;BME280;11799;47.740;-3.390;2023-08-06T02:07:12;101973.00;;;14.33;100.00
23261;BME280;11799;47.740;-3.390;2023-08-06T02:09:37;101975.44;;;14.36;100.00
23261;BME280;11799;47.740;-3.390;2023-08-06T02:12:03;101974.81;;;14.33;100.00
23261;BME280;11799;47.740;-3.390;2023-08-06T02:14:29;101972.41;;;14.30;100.00
23261;BME280;11799;47.740;-3.390;2023-08-06T02:16:54;101974.56;;;14.25;100.00
23261;BME280;11799;47.740;-3.390;2023-08-06T02:19:20;101962.13;;;14.25;100.00
23261;BME280;11799;47.740;-3.390;2023-08-06T02:21:45;101961.03;;;14.28;100.00
23261;BME280;11799;47.740;-3.390;2023-08-06T02:24:11;101967.94;;;14.30;100.00
23261;BME280;11799;47.740;-3.390;2023-08-06T02:26:36;101967.31;;;14.27;100.00
23261;BME280;11799;47.740;-3.390;2023-08-06T02:29:02;101973.13;;;14.32;100.00
23261;BME280;11799;47.740;-3.390;2023-08-06T02:31:27;101970.31;;;14.22;100.00
23261;BME280;11799;47.740;-3.390;2023-08-06T02:33:53;101979.00;;;14.24;100.00
23261;BME280;11799;47.740;-3.390;2023-08-06T02:36:19;101972.84;;;14.24;100.00
23261;BME280;11799;47.740;-3.390;2023-08-06T02:38:44;101970.31;;;14.22;100.00
23261;BME280;11799;47.740;-3.390;2023-08-06T02:41:10;101968.22;;;14.14;100.00
23261;BME280;11799;47.740;-3.390;2023-08-06T02:43:35;101968.13;;;14.16;100.00
23261;BME280;11799;47.740;-3.390;2023-08-06T02:46:01;101959.53;;;14.12;100.00
23261;BME280;11799;47.740;-3.390;2023-08-06T02:48:27;101972.69;;;14.14;100.00
23261;BME280;11799;47.740;-3.390;2023-08-06T02:50:53;101972.69;;;14.14;100.00
23261;BME280;11799;47.740;-3.390;2023-08-06T02:53:22;101980.16;;;14.09;100.00
23261;BME280;11799;47.740;-3.390;2023-08-06T02:55:49;101977.28;;;14.12;100.00
23261;BME280;11799;47.740;-3.390;2023-08-06T02:58:18;101964.31;;;14.07;100.00
23261;BME280;11799;47.740;-3.390;2023-08-06T03:01:05;101975.56;;;14.11;100.00
23261;BME280;11799;47.740;-3.390;2023-08-06T03:03:39;101973.03;;;14.09;100.00
23261;BME280;11799;47.740;-3.390;2023-08-06T03:06:06;101970.25;;;14.11;100.00
23261;BME280;11799;47.740;-3.390;2023-08-06T03:08:40;101973.66;;;14.13;100.00
23261;BME280;11799;47.740;-3.390;2023-08-06T03:11:05;101974.38;;;14.15;100.00
23261;BME280;11799;47.740;-3.390;2023-08-06T03:13:31;101978.22;;;14.11;100.00
23261;BME280;11799;47.740;-3.390;2023-08-06T03:15:59;101979.94;;;14.12;100.00
23261;BME280;11799;47.740;-3.390;2023-08-06T03:18:26;101971.44;;;14.07;100.00
23261;BME280;11799;47.740;-3.390;2023-08-06T03:20:51;101977.09;;;14.02;100.00
23261;BME280;11799;47.740;-3.390;2023-08-06T03:23:18;101966.81;;;13.98;100.00
23261;BME280;11799;47.740;-3.390;2023-08-06T03:25:44;101975.19;;;14.04;100.00
23261;BME280;11799;47.740;-3.390;2023-08-06T03:28:11;101972.84;;;14.00;100.00
23261;BME280;11799;47.740;-3.390;2023-08-06T03:30:37;101970.44;;;13.97;100.00
23261;BME280;11799;47.740;-3.390;2023-08-06T03:33:03;101975.41;;;14.01;100.00
23261;BME280;11799;47.740;-3.390;2023-08-06T03:35:29;101977.31;;;13.99;100.00
23261;BME280;11799;47.740;-3.390;2023-08-06T03:37:54;101973.59;;;14.02;100.00
23261;BME280;11799;47.740;-3.390;2023-08-06T03:40:20;101978.19;;;14.00;100.00
23261;BME280;11799;47.740;-3.390;2023-08-06T03:42:46;101980.72;;;14.01;100.00
23261;BME280;11799;47.740;-3.390;2023-08-06T03:45:12;101988.41;;;13.93;100.00
23261;BME280;11799;47.740;-3.390;2023-08-06T03:47:39;101987.09;;;13.99;100.00
23261;BME280;11799;47.740;-3.390;2023-08-06T03:50:05;101993.25;;;13.99;100.00
23261;BME280;11799;47.740;-3.390;2023-08-06T03:52:31;101990.94;;;13.95;100.00
23261;BME280;11799;47.740;-3.390;2023-08-06T03:54:56;101995.19;;;13.97;100.00
23261;BME280;11799;47.740;-3.390;2023-08-06T03:57:22;101989.41;;;14.03;100.00
23261;BME280;11799;47.740;-3.390;2023-08-06T03:59:48;101986.13;;;14.00;100.00
23261;BME280;11799;47.740;-3.390;2023-08-06T04:02:13;101995.19;;;13.97;100.00
23261;BME280;11799;47.740;-3.390;2023-08-06T04:04:39;102000.16;;;14.02;100.00
23261;BME280;11799;47.740;-3.390;2023-08-06T04:07:05;102001.22;;;13.99;100.00
23261;BME280;11799;47.740;-3.390;2023-08-06T04:09:30;102008.34;;;13.99;100.00
23261;BME280;11799;47.740;-3.390;2023-08-06T04:11:56;102002.28;;;13.97;100.00
23261;BME280;11799;47.740;-3.390;2023-08-06T04:14:24;101996.13;;;13.96;100.00
23261;BME280;11799;47.740;-3.390;2023-08-06T04:16:51;101994.22;;;13.98;100.00
23261;BME280;11799;47.740;-3.390;2023-08-06T04:19:16;102001.34;;;13.98;100.00
23261;BME280;11799;47.740;-3.390;2023-08-06T04:21:42;101990.72;;;13.98;100.00
23261;BME280;11799;47.740;-3.390;2023-08-06T04:24:09;102002.19;;;13.98;100.00
23261;BME280;11799;47.740;-3.390;2023-08-06T04:26:35;101999.41;;;14.00;100.00
23261;BME280;11799;47.740;-3.390;2023-08-06T04:29:00;101993.16;;;14.01;100.00
23261;BME280;11799;47.740;-3.390;2023-08-06T04:31:28;101993.25;;;13.99;100.00
23261;BME280;11799;47.740;-3.390;2023-08-06T04:33:54;102000.78;;;14.05;100.00
23261;BME280;11799;47.740;-3.390;2023-08-06T04:36:19;102008.75;;;14.05;100.00
23261;BME280;11799;47.740;-3.390;2023-08-06T04:38:45;102008.97;;;14.02;100.00
23261;BME280;11799;47.740;-3.390;2023-08-06T04:41:14;102004.63;;;14.01;100.00
23261;BME280;11799;47.740;-3.390;2023-08-06T04:43:39;102002.47;;;14.06;100.00
23261;BME280;11799;47.740;-3.390;2023-08-06T04:46:05;102002.47;;;14.06;100.00
23261;BME280;11799;47.740;-3.390;2023-08-06T04:48:31;102006.19;;;14.04;100.00
23261;BME280;11799;47.740;-3.390;2023-08-06T04:50:56;102006.09;;;14.05;100.00
23261;BME280;11799;47.740;-3.390;2023-08-06T04:53:22;102010.22;;;14.09;100.00
23261;BME280;11799;47.740;-3.390;2023-08-06T04:55:47;102012.03;;;14.09;100.00
23261;BME280;11799;47.740;-3.390;2023-08-06T04:58:13;102017.69;;;14.04;100.00
23261;BME280;11799;47.740;-3.390;2023-08-06T05:00:39;102015.88;;;14.05;100.00
23261;BME280;11799;47.740;-3.390;2023-08-06T05:03:05;102022.59;;;13.98;100.00
23261;BME280;11799;47.740;-3.390;2023-08-06T05:05:31;102024.41;;;13.97;100.00
23261;BME280;11799;47.740;-3.390;2023-08-06T05:07:57;102024.63;;;13.94;100.00
23261;BME280;11799;47.740;-3.390;2023-08-06T05:10:26;102029.31;;;13.91;100.00
23261;BME280;11799;47.740;-3.390;2023-08-06T05:12:52;102031.72;;;13.94;100.00
23261;BME280;11799;47.740;-3.390;2023-08-06T05:15:17;102035.97;;;13.96;100.00
23261;BME280;11799;47.740;-3.390;2023-08-06T05:17:43;102036.09;;;13.95;100.00
23261;BME280;11799;47.740;-3.390;2023-08-06T05:20:09;102032.81;;;13.91;100.00
23261;BME280;11799;47.740;-3.390;2023-08-06T05:22:35;102036.19;;;13.93;100.00
23261;BME280;11799;47.740;-3.390;2023-08-06T05:25:00;102035.47;;;13.91;100.00
23261;BME280;11799;47.740;-3.390;2023-08-06T05:27:26;102039.81;;;13.92;100.00
23261;BME280;11799;47.740;-3.390;2023-08-06T05:29:55;102043.22;;;13.94;100.00
23261;BME280;11799;47.740;-3.390;2023-08-06T05:32:21;102048.63;;;13.93;100.00
23261;BME280;11799;47.740;-3.390;2023-08-06T05:34:46;102049.16;;;13.98;100.00
23261;BME280;11799;47.740;-3.390;2023-08-06T05:37:12;102056.16;;;13.99;100.00
23261;BME280;11799;47.740;-3.390;2023-08-06T05:39:37;102058.06;;;13.97;100.00
23261;BME280;11799;47.740;-3.390;2023-08-06T05:42:03;102057.97;;;13.98;100.00
23261;BME280;11799;47.740;-3.390;2023-08-06T05:44:29;102066.03;;;13.97;100.00
23261;BME280;11799;47.740;-3.390;2023-08-06T05:46:54;102071.25;;;13.98;100.00
23261;BME280;11799;47.740;-3.390;2023-08-06T05:49:20;102071.88;;;14.02;100.00
23261;BME280;11799;47.740;-3.390;2023-08-06T05:51:45;102078.75;;;14.04;100.00
23261;BME280;11799;47.740;-3.390;2023-08-06T05:54:11;102085.03;;;14.03;100.00
23261;BME280;11799;47.740;-3.390;2023-08-06T05:56:36;102087.34;;;14.08;100.00
23261;BME280;11799;47.740;-3.390;2023-08-06T05:59:02;102083.22;;;14.04;100.00
23261;BME280;11799;47.740;-3.390;2023-08-06T06:01:27;102083.53;;;14.12;100.00
23261;BME280;11799;47.740;-3.390;2023-08-06T06:03:53;102087.22;;;14.22;100.00
23261;BME280;11799;47.740;-3.390;2023-08-06T06:06:18;102090.59;;;14.24;100.00
23261;BME280;11799;47.740;-3.390;2023-08-06T06:08:45;102084.72;;;14.32;100.00
23261;BME280;11799;47.740;-3.390;2023-08-06T06:11:11;102088.34;;;14.31;100.00
23261;BME280;11799;47.740;-3.390;2023-08-06T06:13:36;102090.78;;;14.34;100.00
23261;BME280;11799;47.740;-3.390;2023-08-06T06:16:02;102093.09;;;14.38;100.00
23261;BME280;11799;47.740;-3.390;2023-08-06T06:18:27;102102.59;;;14.42;100.00
23261;BME280;11799;47.740;-3.390;2023-08-06T06:20:53;102098.97;;;14.43;100.00
23261;BME280;11799;47.740;-3.390;2023-08-06T06:23:18;102103.78;;;14.49;100.00
23261;BME280;11799;47.740;-3.390;2023-08-06T06:25:48;102105.25;;;14.53;100.00
23261;BME280;11799;47.740;-3.390;2023-08-06T06:28:14;102096.22;;;14.56;100.00
23261;BME280;11799;47.740;-3.390;2023-08-06T06:30:42;102105.66;;;14.60;100.00
23261;BME280;11799;47.740;-3.390;2023-08-06T06:33:08;102108.09;;;14.63;100.00
23261;BME280;11799;47.740;-3.390;2023-08-06T06:35:33;102110.41;;;14.68;100.00
23261;BME280;11799;47.740;-3.390;2023-08-06T06:37:59;102110.19;;;14.71;100.00
23261;BME280;11799;47.740;-3.390;2023-08-06T06:40:25;102109.22;;;14.72;100.00
23261;BME280;11799;47.740;-3.390;2023-08-06T06:42:51;102103.28;;;14.68;100.00
23261;BME280;11799;47.740;-3.390;2023-08-06T06:45:16;102103.44;;;14.78;100.00
23261;BME280;11799;47.740;-3.390;2023-08-06T06:47:42;102111.31;;;14.79;100.00
23261;BME280;11799;47.740;-3.390;2023-08-06T06:50:08;102116.91;;;14.88;100.00
23261;BME280;11799;47.740;-3.390;2023-08-06T06:52:34;102118.38;;;14.92;100.00
23261;BME280;11799;47.740;-3.390;2023-08-06T06:54:59;102118.88;;;14.97;100.00
23261;BME280;11799;47.740;-3.390;2023-08-06T06:57:25;102113.31;;;15.00;100.00
23261;BME280;11799;47.740;-3.390;2023-08-06T06:59:50;102112.59;;;15.09;100.00
23261;BME280;11799;47.740;-3.390;2023-08-06T07:02:16;102125.44;;;15.26;100.00
23261;BME280;11799;47.740;-3.390;2023-08-06T07:04:41;102124.28;;;15.41;100.00
23261;BME280;11799;47.740;-3.390;2023-08-06T07:07:07;102130.72;;;15.61;100.00
23261;BME280;11799;47.740;-3.390;2023-08-06T07:09:32;102122.63;;;15.85;100.00
23261;BME280;11799;47.740;-3.390;2023-08-06T07:11:58;102128.53;;;16.11;100.00
23261;BME280;11799;47.740;-3.390;2023-08-06T07:14:25;102130.06;;;16.25;100.00
23261;BME280;11799;47.740;-3.390;2023-08-06T07:16:51;102129.81;;;16.28;100.00
23261;BME280;11799;47.740;-3.390;2023-08-06T07:19:16;102129.56;;;16.31;100.00
23261;BME280;11799;47.740;-3.390;2023-08-06T07:21:42;102125.09;;;16.31;100.00
23261;BME280;11799;47.740;-3.390;2023-08-06T07:24:07;102130.16;;;16.34;100.00
23261;BME280;11799;47.740;-3.390;2023-08-06T07:26:33;102144.09;;;16.38;100.00
23261;BME280;11799;47.740;-3.390;2023-08-06T07:28:59;102127.97;;;16.39;100.00
23261;BME280;11799;47.740;-3.390;2023-08-06T07:31:24;102132.34;;;16.40;100.00
23261;BME280;11799;47.740;-3.390;2023-08-06T07:33:50;102130.25;;;16.44;100.00
23261;BME280;11799;47.740;-3.390;2023-08-06T07:36:16;102120.03;;;16.71;100.00
23261;BME280;11799;47.740;-3.390;2023-08-06T07:38:41;102119.25;;;17.01;100.00
23261;BME280;11799;47.740;-3.390;2023-08-06T07:41:08;102112.63;;;17.16;100.00
23261;BME280;11799;47.740;-3.390;2023-08-06T07:43:34;102121.94;;;17.22;100.00
23261;BME280;11799;47.740;-3.390;2023-08-06T07:46:01;102105.41;;;17.28;100.00
23261;BME280;11799;47.740;-3.390;2023-08-06T07:48:27;102105.16;;;17.41;100.00
23261;BME280;11799;47.740;-3.390;2023-08-06T07:50:54;102100.13;;;17.47;100.00
23261;BME280;11799;47.740;-3.390;2023-08-06T07:53:24;102094.53;;;17.50;100.00
23261;BME280;11799;47.740;-3.390;2023-08-06T07:55:52;102107.66;;;17.63;100.00
23261;BME280;11799;47.740;-3.390;2023-08-06T07:58:19;102108.00;;;17.70;100.00
23261;BME280;11799;47.740;-3.390;2023-08-06T08:00:44;102101.00;;;17.78;100.00
23261;BME280;11799;47.740;-3.390;2023-08-06T08:03:12;102104.97;;;17.84;100.00
23261;BME280;11799;47.740;-3.390;2023-08-06T08:05:39;102105.56;;;17.88;100.00
23261;BME280;11799;47.740;-3.390;2023-08-06T08:08:04;102102.88;;;17.88;100.00
23261;BME280;11799;47.740;-3.390;2023-08-06T08:10:31;102103.72;;;17.88;100.00
23261;BME280;11799;47.740;-3.390;2023-08-06T08:12:57;102107.09;;;17.90;100.00
23261;BME280;11799;47.740;-3.390;2023-08-06T08:15:24;102095.13;;;17.94;100.00
23261;BME280;11799;47.740;-3.390;2023-08-06T08:17:52;102095.13;;;17.94;100.00
23261;BME280;11799;47.740;-3.390;2023-08-06T08:20:17;102095.84;;;17.96;100.00
23261;BME280;11799;47.740;-3.390;2023-08-06T08:22:43;102099.34;;;17.97;100.00
23261;BME280;11799;47.740;-3.390;2023-08-06T08:25:08;102103.59;;;17.99;100.00
23261;BME280;11799;47.740;-3.390;2023-08-06T08:27:34;102115.97;;;18.00;100.00
23261;BME280;11799;47.740;-3.390;2023-08-06T08:29:59;102101.75;;;18.00;100.00
23261;BME280;11799;47.740;-3.390;2023-08-06T08:32:25;102102.88;;;17.97;100.00
23261;BME280;11799;47.740;-3.390;2023-08-06T08:34:51;102085.56;;;17.92;100.00
23261;BME280;11799;47.740;-3.390;2023-08-06T08:37:16;102099.09;;;18.00;100.00
23261;BME280;11799;47.740;-3.390;2023-08-06T08:39:42;102107.41;;;18.06;100.00
23261;BME280;11799;47.740;-3.390;2023-08-06T08:42:08;102108.97;;;18.09;100.00
23261;BME280;11799;47.740;-3.390;2023-08-06T08:44:35;102101.22;;;18.06;100.00
23261;BME280;11799;47.740;-3.390;2023-08-06T08:47:07;102108.81;;;18.10;100.00
23261;BME280;11799;47.740;-3.390;2023-08-06T08:49:37;102097.16;;;18.11;100.00
23261;BME280;11799;47.740;-3.390;2023-08-06T08:52:04;102098.97;;;18.11;100.00
23261;BME280;11799;47.740;-3.390;2023-08-06T08:54:34;102096.75;;;18.16;100.00
23261;BME280;11799;47.740;-3.390;2023-08-06T08:57:00;102098.41;;;18.07;100.00
23261;BME280;11799;47.740;-3.390;2023-08-06T08:59:27;102102.34;;;18.03;100.00
23261;BME280;11799;47.740;-3.390;2023-08-06T09:01:53;102097.66;;;17.96;100.00
23261;BME280;11799;47.740;-3.390;2023-08-06T09:04:20;102095.97;;;17.95;100.00
23261;BME280;11799;47.740;-3.390;2023-08-06T09:06:50;102113.56;;;17.97;100.00
23261;BME280;11799;47.740;-3.390;2023-08-06T09:09:22;102120.75;;;17.97;100.00
23261;BME280;11799;47.740;-3.390;2023-08-06T09:11:51;102102.59;;;17.91;100.00
23261;BME280;11799;47.740;-3.390;2023-08-06T09:14:17;102104.72;;;17.97;100.00
23261;BME280;11799;47.740;-3.390;2023-08-06T09:16:43;102100.50;;;18.04;100.00
23261;BME280;11799;47.740;-3.390;2023-08-06T09:21:38;102105.59;;;18.17;100.00
23261;BME280;11799;47.740;-3.390;2023-08-06T09:26:34;102096.59;;;18.18;100.00
23261;BME280;11799;47.740;-3.390;2023-08-06T09:28:59;102089.16;;;18.21;100.00
23261;BME280;11799;47.740;-3.390;2023-08-06T09:31:32;102086.91;;;18.17;100.00
23261;BME280;11799;47.740;-3.390;2023-08-06T09:34:02;102078.31;;;18.13;100.00
23261;BME280;11799;47.740;-3.390;2023-08-06T09:36:27;102079.03;;;18.25;100.00
23261;BME280;11799;47.740;-3.390;2023-08-06T09:38:53;102090.72;;;18.24;100.00
23261;BME280;11799;47.740;-3.390;2023-08-06T09:41:27;102105.19;;;18.21;100.00
23261;BME280;11799;47.740;-3.390;2023-08-06T09:43:56;102103.78;;;18.17;100.00
23261;BME280;11799;47.740;-3.390;2023-08-06T09:46:21;102107.56;;;18.14;100.00
23261;BME280;11799;47.740;-3.390;2023-08-06T09:48:47;102113.75;;;18.15;100.00
23261;BME280;11799;47.740;-3.390;2023-08-06T09:51:14;102109.13;;;18.17;100.00
23261;BME280;11799;47.740;-3.390;2023-08-06T09:53:40;102106.88;;;18.22;100.00
23261;BME280;11799;47.740;-3.390;2023-08-06T09:56:06;102107.88;;;18.31;100.00
23261;BME280;11799;47.740;-3.390;2023-08-06T09:58:32;102106.63;;;18.35;100.00
23261;BME280;11799;47.740;-3.390;2023-08-06T10:00:59;102115.50;;;18.35;100.00
23261;BME280;11799;47.740;-3.390;2023-08-06T10:03:25;102119.59;;;18.39;100.00
23261;BME280;11799;47.740;-3.390;2023-08-06T10:05:54;102121.84;;;18.44;100.00
23261;BME280;11799;47.740;-3.390;2023-08-06T10:08:20;102126.47;;;18.52;100.00
23261;BME280;11799;47.740;-3.390;2023-08-06T10:10:46;102119.44;;;18.51;100.00
23261;BME280;11799;47.740;-3.390;2023-08-06T10:13:13;102133.25;;;18.56;100.00
23261;BME280;11799;47.740;-3.390;2023-08-06T10:15:39;102133.81;;;18.59;100.00
23261;BME280;11799;47.740;-3.390;2023-08-06T10:18:05;102117.31;;;18.54;100.00
23261;BME280;11799;47.740;-3.390;2023-08-06T10:20:35;102116.53;;;18.63;100.00
23261;BME280;11799;47.740;-3.390;2023-08-06T10:23:02;102112.59;;;18.67;100.00
23261;BME280;11799;47.740;-3.390;2023-08-06T10:25:32;102129.91;;;18.73;100.00
23261;BME280;11799;47.740;-3.390;2023-08-06T10:28:11;102127.81;;;18.76;100.00
23261;BME280;11799;47.740;-3.390;2023-08-06T10:30:45;102113.72;;;18.74;100.00
23261;BME280;11799;47.740;-3.390;2023-08-06T10:33:12;102106.38;;;18.76;100.00
23261;BME280;11799;47.740;-3.390;2023-08-06T10:35:41;102114.69;;;18.83;100.00
23261;BME280;11799;47.740;-3.390;2023-08-06T10:38:11;102117.22;;;18.85;100.00
23261;BME280;11799;47.740;-3.390;2023-08-06T10:40:40;102118.06;;;18.85;100.00
23261;BME280;11799;47.740;-3.390;2023-08-06T10:43:06;102095.97;;;18.83;100.00
23261;BME280;11799;47.740;-3.390;2023-08-06T10:45:35;102097.09;;;18.90;100.00
23261;BME280;11799;47.740;-3.390;2023-08-06T10:48:01;102098.91;;;18.99;100.00
23261;BME280;11799;47.740;-3.390;2023-08-06T10:50:27;102105.63;;;19.13;100.00
23261;BME280;11799;47.740;-3.390;2023-08-06T10:52:53;102102.50;;;19.18;100.00
23261;BME280;11799;47.740;-3.390;2023-08-06T10:55:23;102110.13;;;19.22;100.00
23261;BME280;11799;47.740;-3.390;2023-08-06T10:57:50;102112.78;;;19.22;100.00
23261;BME280;11799;47.740;-3.390;2023-08-06T11:00:15;102114.34;;;19.15;100.00
23261;BME280;11799;47.740;-3.390;2023-08-06T11:02:41;102117.31;;;19.12;100.00
23261;BME280;11799;47.740;-3.390;2023-08-06T11:05:08;102108.59;;;19.10;100.00
23261;BME280;11799;47.740;-3.390;2023-08-06T11:07:37;102102.94;;;19.13;100.00
23261;BME280;11799;47.740;-3.390;2023-08-06T11:10:07;102100.25;;;19.23;100.00
23261;BME280;11799;47.740;-3.390;2023-08-06T11:12:34;102089.81;;;19.20;100.00
23261;BME280;11799;47.740;-3.390;2023-08-06T11:15:00;102093.22;;;19.22;100.00
23261;BME280;11799;47.740;-3.390;2023-08-06T11:17:31;102094.59;;;19.26;100.00
23261;BME280;11799;47.740;-3.390;2023-08-06T11:20:03;102099.97;;;19.26;100.00
23261;BME280;11799;47.740;-3.390;2023-08-06T11:22:29;102104.47;;;19.25;100.00
23261;BME280;11799;47.740;-3.390;2023-08-06T11:24:55;102103.91;;;19.22;100.00
23261;BME280;11799;47.740;-3.390;2023-08-06T11:27:21;102105.75;;;19.21;100.00
23261;BME280;11799;47.740;-3.390;2023-08-06T11:29:47;102078.44;;;19.08;100.00
23261;BME280;11799;47.740;-3.390;2023-08-06T11:32:12;102098.72;;;19.20;100.00
23261;BME280;11799;47.740;-3.390;2023-08-06T11:34:39;102098.97;;;19.27;100.00
23261;BME280;11799;47.740;-3.390;2023-08-06T11:37:05;102098.84;;;19.28;100.00
23261;BME280;11799;47.740;-3.390;2023-08-06T11:39:35;102091.22;;;19.33;100.00
23261;BME280;11799;47.740;-3.390;2023-08-06T11:42:03;102089.22;;;19.35;100.00
23261;BME280;11799;47.740;-3.390;2023-08-06T11:44:35;102088.94;;;19.38;100.00
23261;BME280;11799;47.740;-3.390;2023-08-06T11:47:03;102089.50;;;19.42;100.00
23261;BME280;11799;47.740;-3.390;2023-08-06T11:49:45;102088.06;;;19.48;100.00
23261;BME280;11799;47.740;-3.390;2023-08-06T11:52:19;102092.56;;;19.47;100.00
23261;BME280;11799;47.740;-3.390;2023-08-06T11:55:08;102095.97;;;19.39;100.00
23261;BME280;11799;47.740;-3.390;2023-08-06T11:57:38;102104.44;;;19.35;100.00
23261;BME280;11799;47.740;-3.390;2023-08-06T12:00:09;102092.34;;;19.31;100.00
23261;BME280;11799;47.740;-3.390;2023-08-06T12:02:42;102081.38;;;19.24;100.00
23261;BME280;11799;47.740;-3.390;2023-08-06T12:05:12;102074.03;;;19.26;100.00
23261;BME280;11799;47.740;-3.390;2023-08-06T12:07:40;102081.03;;;19.37;100.00
23261;BME280;11799;47.740;-3.390;2023-08-06T12:10:07;102081.59;;;19.40;100.00
23261;BME280;11799;47.740;-3.390;2023-08-06T12:12:33;102078.03;;;19.50;100.00
23261;BME280;11799;47.740;-3.390;2023-08-06T12:14:59;102077.34;;;19.57;100.00
23261;BME280;11799;47.740;-3.390;2023-08-06T12:17:25;102069.22;;;19.67;100.00
23261;BME280;11799;47.740;-3.390;2023-08-06T12:19:51;102064.69;;;19.77;100.00
23261;BME280;11799;47.740;-3.390;2023-08-06T12:22:16;102047.00;;;19.84;100.00
23261;BME280;11799;47.740;-3.390;2023-08-06T12:24:43;102035.97;;;19.87;100.00
23261;BME280;11799;47.740;-3.390;2023-08-06T12:27:09;102062.34;;;19.92;100.00
23261;BME280;11799;47.740;-3.390;2023-08-06T12:29:35;102056.72;;;19.85;100.00
23261;BME280;11799;47.740;-3.390;2023-08-06T12:32:01;102043.22;;;19.77;100.00
23261;BME280;11799;47.740;-3.390;2023-08-06T12:34:27;102047.59;;;19.78;100.00
23261;BME280;11799;47.740;-3.390;2023-08-06T12:36:53;102065.56;;;19.95;100.00
23261;BME280;11799;47.740;-3.390;2023-08-06T12:39:18;102054.69;;;19.97;100.00